Time;durP1;ratioP1;P1;durP2;ratioP2;P2;SDS_P1;SDS_P2;PMS_P1;PMS_P2;Temp;Humidity;BMP_temperature;BMP_pressure;BME280_temperature;BME280_humidity;BME280_pressure;Samples;Min_cycle;Max_cycle;Signal;HPM_P1;HPM_P2
2021/08/11 00:01:45;;;;;;;0.00;0.00;;;;;;;27.99;42.87;98832.50;5114602;28;20106;-76
2021/08/11 00:04:10;;;;;;;0.00;0.00;;;;;;;27.88;43.09;98835.28;5113798;28;20030;-76
2021/08/11 00:06:36;;;;;;;0.00;0.00;;;;;;;27.78;43.53;98839.66;5113564;28;20038;-76
2021/08/11 00:09:02;;;;;;;0.10;0.10;;;;;;;27.74;43.48;98844.38;5112227;28;20027;-75
2021/08/11 00:11:30;;;;;;;0.10;0.10;;;;;;;27.67;43.66;98845.19;5114241;28;20473;-76
2021/08/11 00:13:55;;;;;;;0.00;0.00;;;;;;;27.62;43.71;98854.63;5113888;28;20028;-74
2021/08/11 00:16:20;;;;;;;0.20;0.20;;;;;;;27.56;43.70;98845.22;5113918;28;20429;-75
2021/08/11 00:18:46;;;;;;;0.00;0.00;;;;;;;27.54;43.97;98844.03;5113398;28;20069;-77
2021/08/11 00:21:12;;;;;;;0.05;0.05;;;;;;;27.51;44.05;98842.09;5111780;28;20100;-79
2021/08/11 00:23:37;;;;;;;0.20;0.20;;;;;;;27.51;43.93;98845.59;5110849;28;20038;-75
2021/08/11 00:26:03;;;;;;;0.05;0.05;;;;;;;27.48;44.23;98841.69;5114085;28;20020;-76
2021/08/11 00:28:28;;;;;;;0.13;0.10;;;;;;;27.54;44.13;98844.81;5111950;28;20531;-75
2021/08/11 00:30:54;;;;;;;0.00;0.00;;;;;;;27.53;44.01;98842.50;5113610;28;20115;-77
2021/08/11 00:33:20;;;;;;;0.00;0.00;;;;;;;27.55;44.09;98834.63;5112474;28;20110;-78
2021/08/11 00:35:46;;;;;;;0.00;0.00;;;;;;;27.57;44.07;98835.78;5112549;28;20032;-78
2021/08/11 00:38:12;;;;;;;0.10;0.10;;;;;;;27.60;43.77;98843.25;5112161;28;20394;-80
2021/08/11 00:40:38;;;;;;;0.00;0.00;;;;;;;27.63;44.32;98838.91;5111844;28;20020;-81
2021/08/11 00:43:10;;;;;;;0.00;0.00;;;;;;;27.60;44.15;98837.75;5111583;28;20055;-79
2021/08/11 00:45:37;;;;;;;0.30;0.20;;;;;;;27.60;44.11;98837.75;5113656;28;20026;-77
2021/08/11 00:48:04;;;;;;;0.10;0.10;;;;;;;27.60;44.00;98837.75;5113357;28;20080;-78
2021/08/11 00:50:31;;;;;;;0.00;0.00;;;;;;;27.58;44.08;98837.34;5112112;28;20024;-78
2021/08/11 00:52:56;;;;;;;0.00;0.00;;;;;;;27.58;44.06;98842.06;5113636;28;20043;-81
2021/08/11 00:55:23;;;;;;;0.00;0.00;;;;;;;27.48;44.36;98843.66;5110765;28;20020;-79
2021/08/11 00:57:52;;;;;;;0.00;0.00;;;;;;;27.46;44.04;98843.28;5111603;28;20567;-78
2021/08/11 01:00:18;;;;;;;0.10;0.10;;;;;;;27.43;44.50;98838.59;5112628;28;20020;-77
2021/08/11 01:02:45;;;;;;;0.00;0.00;;;;;;;27.44;44.38;98840.94;5113014;28;20494;-76
2021/08/11 01:05:12;;;;;;;0.00;0.00;;;;;;;27.41;44.32;98829.94;5113415;28;20039;-78
2021/08/11 01:07:39;;;;;;;0.00;0.00;;;;;;;27.35;44.37;98826.78;5113598;28;20055;-78
2021/08/11 01:10:06;;;;;;;0.08;0.08;;;;;;;27.35;44.55;98826.78;5112463;28;20031;-78
2021/08/11 01:12:32;;;;;;;0.00;0.00;;;;;;;27.31;44.04;98832.28;5112753;28;20529;-78
2021/08/11 01:14:59;;;;;;;0.00;0.00;;;;;;;27.29;43.97;98831.09;5111033;28;20079;-77
2021/08/11 01:17:26;;;;;;;0.00;0.00;;;;;;;27.26;43.97;98827.19;5096645;28;20056;-77
2021/08/11 01:19:52;;;;;;;0.00;0.00;;;;;;;27.17;44.06;98833.09;5111672;28;20043;-76
2021/08/11 01:22:32;;;;;;;0.00;0.00;;;;;;;27.13;44.20;98820.53;5112759;28;20028;-76
2021/08/11 01:25:06;;;;;;;0.10;0.10;;;;;;;27.07;44.40;98824.84;5112757;28;20040;-76
2021/08/11 01:27:53;;;;;;;0.00;0.00;;;;;;;27.00;44.58;98818.19;5112334;28;20027;-77
2021/08/11 01:30:26;;;;;;;0.00;0.00;;;;;;;26.93;44.67;98811.94;5112926;28;20046;-76
2021/08/11 01:33:24;;;;;;;0.10;0.10;;;;;;;26.85;44.77;98811.13;5112320;28;20023;-76
2021/08/11 01:35:59;;;;;;;0.00;0.00;;;;;;;26.76;44.93;98803.31;5112113;28;20039;-76
2021/08/11 01:38:29;;;;;;;0.05;0.05;;;;;;;26.77;45.19;98809.56;5112344;28;20027;-77
2021/08/11 01:40:59;;;;;;;0.00;0.00;;;;;;;26.74;45.55;98799.34;5112452;28;20038;-78
2021/08/11 01:43:29;;;;;;;0.00;0.00;;;;;;;26.73;45.82;98806.00;5100431;28;20027;-78
2021/08/11 01:45:57;;;;;;;0.00;0.00;;;;;;;26.71;45.41;98794.66;5112732;28;20027;-75
2021/08/11 01:48:36;;;;;;;0.00;0.00;;;;;;;26.71;45.65;98798.19;5111570;28;20494;-76
2021/08/11 01:51:01;;;;;;;0.00;0.00;;;;;;;26.66;45.65;98795.84;5101058;28;20123;-75
2021/08/11 01:53:27;;;;;;;0.00;0.00;;;;;;;26.60;45.75;98803.66;5112764;28;20426;-74
2021/08/11 01:55:56;;;;;;;0.00;0.00;;;;;;;26.51;45.26;98804.03;5112226;27;20062;-74
2021/08/11 01:58:28;;;;;;;0.00;0.00;;;;;;;26.50;44.92;98809.91;5091970;28;20110;-75
2021/08/11 02:00:56;;;;;;;0.00;0.00;;;;;;;26.45;44.94;98813.84;5104280;28;20035;-77
2021/08/11 02:03:23;;;;;;;0.00;0.00;;;;;;;26.40;44.98;98811.44;5109833;28;20024;-77
2021/08/11 02:05:53;;;;;;;0.08;0.08;;;;;;;26.35;45.13;98804.41;5111833;28;20120;-77
2021/08/11 02:08:21;;;;;;;0.00;0.00;;;;;;;26.28;45.58;98809.88;5111195;28;20024;-77
2021/08/11 02:10:48;;;;;;;0.00;0.00;;;;;;;26.22;45.36;98808.69;5110190;28;20028;-75
2021/08/11 02:13:15;;;;;;;0.03;0.03;;;;;;;26.16;45.69;98797.31;5111746;27;20024;-76
2021/08/11 02:15:41;;;;;;;0.00;0.00;;;;;;;26.12;45.64;98812.16;5112298;28;20110;-75
2021/08/11 02:18:06;;;;;;;0.00;0.00;;;;;;;26.00;45.45;98805.03;5110854;28;20424;-76
2021/08/11 02:20:32;;;;;;;0.00;0.00;;;;;;;26.03;45.69;98813.28;5109515;28;20031;-76
2021/08/11 02:22:58;;;;;;;0.00;0.00;;;;;;;25.94;45.98;98807.38;5111086;28;20456;-78
2021/08/11 02:25:23;;;;;;;0.00;0.00;;;;;;;25.89;46.11;98803.06;5110340;28;20034;-79
2021/08/11 02:27:53;;;;;;;0.00;0.00;;;;;;;25.86;46.06;98805.78;5111485;28;20027;-79
2021/08/11 02:30:32;;;;;;;0.00;0.00;;;;;;;25.78;46.33;98804.19;5110035;28;20039;-81
2021/08/11 02:33:05;;;;;;;0.00;0.00;;;;;;;25.73;46.65;98803.41;5109961;28;20016;-79
2021/08/11 02:35:43;;;;;;;0.00;0.00;;;;;;;25.69;46.93;98808.06;5110158;28;20055;-80
2021/08/11 02:38:16;;;;;;;0.00;0.00;;;;;;;25.60;46.75;98804.09;5108641;28;20107;-78
2021/08/11 02:40:47;;;;;;;0.00;0.00;;;;;;;25.57;46.86;98803.72;5109490;28;20031;-80
2021/08/11 02:43:24;;;;;;;0.00;0.00;;;;;;;25.55;47.21;98803.28;5109676;28;20059;-81
2021/08/11 02:45:55;;;;;;;0.10;0.10;;;;;;;25.52;47.01;98803.28;5109138;28;20039;-81
2021/08/11 02:48:22;;;;;;;0.00;0.00;;;;;;;25.50;47.21;98800.13;5109435;28;20024;-87
2021/08/11 02:50:48;;;;;;;0.00;0.00;;;;;;;25.48;47.25;98803.25;5109887;28;20044;-82
2021/08/11 02:53:16;;;;;;;0.00;0.00;;;;;;;25.45;47.30;98806.78;5109393;28;20557;-85
2021/08/11 02:55:42;;;;;;;0.00;0.00;;;;;;;25.39;47.33;98800.88;5110058;28;20038;-77
2021/08/11 02:58:08;;;;;;;0.10;0.10;;;;;;;25.37;47.33;98802.38;5111076;28;20023;-78
2021/08/11 03:00:34;;;;;;;1.17;0.32;;;;;;;25.31;47.57;98804.69;5108971;28;20123;-78
2021/08/11 03:03:00;;;;;;;0.00;0.00;;;;;;;25.25;47.46;98793.34;5109446;28;20050;-78
2021/08/11 03:05:26;;;;;;;0.00;0.00;;;;;;;25.15;47.56;98794.03;5110975;28;20479;-78
2021/08/11 03:07:51;;;;;;;0.00;0.00;;;;;;;25.09;47.71;98798.28;5109032;28;20479;-78
2021/08/11 03:10:17;;;;;;;0.00;0.00;;;;;;;25.01;47.92;98793.94;5104806;28;20027;-78
2021/08/11 03:12:46;;;;;;;0.00;0.00;;;;;;;24.93;48.14;98795.81;5110724;28;20035;-77
2021/08/11 03:15:12;;;;;;;0.00;0.00;;;;;;;24.89;48.38;98787.59;5109624;28;20024;-78
2021/08/11 03:17:38;;;;;;;0.03;0.03;;;;;;;24.87;48.38;98800.09;5109979;28;20039;-78
2021/08/11 03:20:05;;;;;;;0.00;0.00;;;;;;;24.89;48.19;98803.19;5110684;28;20027;-77
2021/08/11 03:22:30;;;;;;;0.10;0.10;;;;;;;24.88;48.44;98801.66;5109032;28;20024;-75
2021/08/11 03:24:56;;;;;;;0.10;0.10;;;;;;;24.88;48.42;98807.13;5108885;28;20044;-77
2021/08/11 03:27:21;;;;;;;0.10;0.10;;;;;;;24.89;48.46;98809.47;5110487;28;20024;-77
2021/08/11 03:29:47;;;;;;;0.00;0.00;;;;;;;24.89;48.72;98806.75;5110926;28;20032;-78
2021/08/11 03:32:12;;;;;;;0.08;0.03;;;;;;;24.90;48.77;98813.78;5108789;28;20030;-79
2021/08/11 03:34:38;;;;;;;0.00;0.00;;;;;;;24.92;48.60;98807.94;5108405;28;20049;-77
2021/08/11 03:37:04;;;;;;;0.10;0.10;;;;;;;24.97;48.93;98813.03;5108890;28;20020;-78
2021/08/11 03:39:30;;;;;;;0.10;0.10;;;;;;;25.03;48.90;98825.19;5108766;28;20047;-87
2021/08/11 03:41:55;;;;;;;0.15;0.15;;;;;;;25.08;48.68;98813.94;5109106;28;20043;-77
2021/08/11 03:44:21;;;;;;;0.00;0.00;;;;;;;25.20;48.60;98814.78;5109762;28;20028;-77
2021/08/11 03:46:46;;;;;;;0.00;0.00;;;;;;;25.36;47.98;98814.50;5110041;28;20607;-77
2021/08/11 03:49:11;;;;;;;0.00;0.00;;;;;;;25.52;47.96;98822.44;5110282;28;20027;-75
2021/08/11 03:51:37;;;;;;;0.00;0.00;;;;;;;25.76;47.43;98820.22;5109883;28;20110;-74
2021/08/11 03:54:02;;;;;;;0.00;0.00;;;;;;;25.98;47.19;98821.09;5110004;28;20440;-74
2021/08/11 03:56:28;;;;;;;0.00;0.00;;;;;;;26.20;46.50;98830.97;5110952;28;20503;-75
2021/08/11 03:58:53;;;;;;;0.00;0.00;;;;;;;26.38;46.03;98835.75;5113894;28;20024;-74
2021/08/11 04:01:19;;;;;;;0.00;0.00;;;;;;;26.55;45.31;98833.41;5107455;28;20494;-75
2021/08/11 04:03:45;;;;;;;0.00;0.00;;;;;;;26.73;44.96;98836.97;5113863;28;20015;-74
2021/08/11 04:06:10;;;;;;;0.00;0.00;;;;;;;26.94;44.60;98841.72;5113775;28;20031;-76
2021/08/11 04:08:36;;;;;;;0.00;0.00;;;;;;;27.17;44.12;98832.28;5114235;27;20023;-75
2021/08/11 04:11:01;;;;;;;0.00;0.00;;;;;;;27.42;43.74;98835.03;5113039;28;20028;-75
2021/08/11 04:13:27;;;;;;;0.00;0.00;;;;;;;27.69;43.02;98831.06;5114411;28;20556;-75
2021/08/11 04:15:53;;;;;;;0.00;0.00;;;;;;;27.95;42.25;98822.34;5112687;28;20051;-84
2021/08/11 04:18:18;;;;;;;0.00;0.00;;;;;;;28.20;41.78;98818.69;5111129;28;20023;-82
2021/08/11 04:20:44;;;;;;;0.00;0.00;;;;;;;28.51;41.20;98818.91;5112492;28;20047;-77
2021/08/11 04:23:10;;;;;;;0.00;0.00;;;;;;;28.85;40.43;98821.03;5113436;28;20403;-80
2021/08/11 04:25:37;;;;;;;0.05;0.05;;;;;;;29.18;40.00;98821.53;5112450;28;20031;-78
2021/08/11 04:28:03;;;;;;;0.00;0.00;;;;;;;29.51;39.38;98822.03;5111924;28;20083;-77
2021/08/11 04:30:29;;;;;;;0.00;0.00;;;;;;;29.83;38.75;98817.34;5113215;28;20070;-77
2021/08/11 04:32:54;;;;;;;0.00;0.00;;;;;;;30.18;38.06;98818.13;5114501;28;20055;-77
2021/08/11 04:35:20;;;;;;;0.00;0.00;;;;;;;30.51;37.80;98818.47;5114314;28;20111;-77
2021/08/11 04:37:45;;;;;;;0.00;0.00;;;;;;;30.83;36.65;98822.69;5113826;28;20022;-77
2021/08/11 04:40:11;;;;;;;0.00;0.00;;;;;;;31.17;36.24;98832.03;5113837;28;20070;-78
2021/08/11 04:42:38;;;;;;;0.00;0.00;;;;;;;31.45;35.76;98827.97;5113727;28;20481;-78
2021/08/11 04:45:04;;;;;;;0.00;0.00;;;;;;;31.75;34.81;98832.53;5113929;28;20387;-77
2021/08/11 04:47:29;;;;;;;0.00;0.00;;;;;;;31.97;34.41;98829.34;5113594;28;20028;-78
2021/08/11 04:49:55;;;;;;;0.00;0.00;;;;;;;32.21;34.28;98834.78;5113780;27;20107;-78
2021/08/11 04:52:20;;;;;;;0.00;0.00;;;;;;;32.46;33.67;98844.50;5112495;28;20114;-77
2021/08/11 04:54:46;;;;;;;0.00;0.00;;;;;;;32.67;33.39;98843.25;5112285;28;20132;-78
2021/08/11 04:57:11;;;;;;;0.03;0.03;;;;;;;32.84;33.36;98838.53;5113469;28;20023;-77
2021/08/11 04:59:37;;;;;;;0.00;0.00;;;;;;;33.07;33.38;98825.69;5113529;28;20024;-77
2021/08/11 05:02:03;;;;;;;0.10;0.10;;;;;;;33.32;32.69;98834.13;5113353;28;20024;-78
2021/08/11 05:04:28;;;;;;;0.00;0.00;;;;;;;33.52;32.46;98830.44;5113246;28;20035;-77
2021/08/11 05:06:54;;;;;;;0.08;0.08;;;;;;;33.71;32.65;98839.84;5112828;28;20020;-78
2021/08/11 05:09:19;;;;;;;0.10;0.10;;;;;;;33.91;32.25;98839.69;5112377;28;20043;-76
2021/08/11 05:11:45;;;;;;;0.00;0.00;;;;;;;34.11;32.00;98842.28;5111942;28;20448;-76
2021/08/11 05:14:11;;;;;;;0.10;0.10;;;;;;;34.27;32.09;98838.63;5113153;28;20023;-76
2021/08/11 05:16:37;;;;;;;0.00;0.00;;;;;;;34.47;31.51;98835.66;5112874;28;20430;-78
2021/08/11 05:19:02;;;;;;;0.00;0.00;;;;;;;34.58;31.18;98831.75;5113271;28;20024;-78
2021/08/11 05:21:28;;;;;;;0.05;0.05;;;;;;;34.68;31.21;98835.41;5113084;28;20027;-77
2021/08/11 05:23:54;;;;;;;0.10;0.10;;;;;;;34.82;31.20;98836.97;5113182;28;20023;-78
2021/08/11 05:26:19;;;;;;;0.10;0.10;;;;;;;34.90;31.13;98847.41;5111684;28;20028;-78
2021/08/11 05:28:48;;;;;;;0.20;0.20;;;;;;;34.71;31.20;98838.06;5112435;28;20028;-78
2021/08/11 05:31:14;;;;;;;0.10;0.10;;;;;;;34.63;31.57;98845.06;5111405;28;20031;-78
2021/08/11 05:33:40;;;;;;;0.00;0.00;;;;;;;34.66;31.75;98846.97;5111107;28;20118;-78
2021/08/11 05:36:05;;;;;;;0.10;0.10;;;;;;;34.72;31.87;98855.53;5112653;28;20059;-78
2021/08/11 05:38:32;;;;;;;0.00;0.00;;;;;;;34.91;31.20;98859.28;5112190;28;20035;-78
2021/08/11 05:40:59;;;;;;;0.00;0.00;;;;;;;35.01;31.17;98863.75;5112504;28;20028;-78
2021/08/11 05:43:24;;;;;;;;;;;;;;;35.20;31.28;98859.09;5112749;28;20114;-78
2021/08/11 05:45:50;;;;;;;0.00;0.00;;;;;;;35.26;30.65;98864.88;5111234;28;20382;-78
2021/08/11 05:48:15;;;;;;;0.10;0.10;;;;;;;35.31;30.34;98860.75;5112139;28;20016;-78
2021/08/11 05:50:40;;;;;;;0.20;0.20;;;;;;;35.38;29.77;98861.31;5112639;28;20170;-78
2021/08/11 05:53:06;;;;;;;0.03;0.03;;;;;;;35.22;30.09;98869.81;5112259;28;20024;-78
2021/08/11 05:55:31;;;;;;;0.10;0.10;;;;;;;35.09;30.15;98865.03;5112010;28;20102;-78
2021/08/11 05:57:57;;;;;;;0.10;0.10;;;;;;;34.82;30.72;98865.50;5111213;28;20081;-77
2021/08/11 06:00:22;;;;;;;2.53;0.55;;;;;;;34.63;31.10;98872.84;5111155;28;20027;-78
2021/08/11 06:02:47;;;;;;;0.00;0.00;;;;;;;34.28;30.98;98859.59;5111794;28;20547;-78
2021/08/11 06:05:13;;;;;;;0.15;0.15;;;;;;;34.04;31.47;98856.34;5110732;28;20546;-77
2021/08/11 06:07:39;;;;;;;0.45;0.45;;;;;;;33.88;32.21;98859.97;5110856;28;20020;-78
2021/08/11 06:10:06;;;;;;;0.00;0.00;;;;;;;33.77;32.17;98859.50;5112644;28;20059;-77
2021/08/11 06:12:32;;;;;;;0.30;0.30;;;;;;;33.64;32.63;98868.53;5110383;28;20023;-78
2021/08/11 06:14:57;;;;;;;0.20;0.20;;;;;;;33.55;32.63;98873.94;5112282;28;20034;-77
2021/08/11 06:17:23;;;;;;;0.10;0.10;;;;;;;33.30;33.20;98875.38;5112040;28;20091;-78
2021/08/11 06:19:49;;;;;;;0.13;0.13;;;;;;;33.12;33.75;98877.81;5110023;28;20402;-77
2021/08/11 06:22:16;;;;;;;0.10;0.10;;;;;;;33.02;34.03;98880.41;5111657;28;20036;-78
2021/08/11 06:24:41;;;;;;;0.20;0.20;;;;;;;32.93;33.48;98880.22;5110275;28;20035;-77
2021/08/11 06:27:07;;;;;;;0.52;0.52;;;;;;;32.84;33.56;98877.28;5112194;28;20039;-77
2021/08/11 06:29:32;;;;;;;0.20;0.20;;;;;;;32.70;33.87;98879.16;5111542;28;20131;-77
2021/08/11 06:31:58;;;;;;;0.28;0.28;;;;;;;32.63;33.96;98875.75;5111645;28;20031;-78
2021/08/11 06:34:24;;;;;;;0.70;0.70;;;;;;;32.53;33.88;98874.78;5111693;28;20031;-77
2021/08/11 06:36:53;;;;;;;0.55;0.55;;;;;;;32.47;33.74;98882.84;5110209;28;20031;-77
2021/08/11 06:39:19;;;;;;;0.40;0.40;;;;;;;32.41;33.92;98879.03;5111797;28;20028;-77
2021/08/11 06:41:45;;;;;;;0.30;0.30;;;;;;;32.42;34.96;98875.03;5111411;28;20047;-78
2021/08/11 06:44:11;;;;;;;0.10;0.10;;;;;;;32.38;34.11;98877.09;5110322;28;20023;-78
2021/08/11 06:46:36;;;;;;;0.10;0.10;;;;;;;32.21;34.11;98863.25;5109963;28;20077;-77
2021/08/11 06:49:01;;;;;;;0.38;0.20;;;;;;;32.16;34.92;98871.22;5110984;28;20027;-77
2021/08/11 06:51:27;;;;;;;0.20;0.20;;;;;;;32.05;35.25;98883.28;5111030;28;20031;-77
2021/08/11 06:53:52;;;;;;;0.20;0.20;;;;;;;32.06;35.01;98867.47;5111256;28;20399;-77
2021/08/11 06:56:18;;;;;;;0.60;0.60;;;;;;;32.07;34.95;98880.88;5111511;28;20035;-77
2021/08/11 06:58:43;;;;;;;0.05;0.05;;;;;;;32.09;35.56;98874.91;5110057;28;20104;-78
2021/08/11 07:01:09;;;;;;;0.63;0.63;;;;;;;32.13;34.10;98872.88;5111253;28;20027;-77
2021/08/11 07:03:34;;;;;;;0.10;0.10;;;;;;;32.28;34.47;98867.81;5109847;28;20016;-77
2021/08/11 07:06:01;;;;;;;0.10;0.10;;;;;;;32.33;34.19;98858.25;5111440;28;20542;-78
2021/08/11 07:08:26;;;;;;;0.22;0.20;;;;;;;32.41;33.99;98870.72;5111207;28;20466;-78
2021/08/11 07:10:51;;;;;;;0.28;0.28;;;;;;;32.63;33.28;98871.00;5111128;28;20092;-78
2021/08/11 07:13:17;;;;;;;0.00;0.00;;;;;;;32.80;33.26;98865.50;5110164;28;20110;-78
2021/08/11 07:15:42;;;;;;;0.10;0.10;;;;;;;32.85;32.85;98865.78;5110975;28;20059;-78
2021/08/11 07:18:09;;;;;;;0.10;0.10;;;;;;;32.87;32.82;98862.56;5111630;28;20027;-78
2021/08/11 07:20:34;;;;;;;0.35;0.35;;;;;;;32.86;32.26;98861.00;5110950;28;20103;-76
2021/08/11 07:22:59;;;;;;;0.10;0.10;;;;;;;32.93;32.55;98869.13;5110869;28;20027;-77
2021/08/11 07:25:27;;;;;;;0.00;0.00;;;;;;;33.00;32.49;98866.19;5111297;28;20026;-78
2021/08/11 07:27:52;;;;;;;0.10;0.10;;;;;;;33.11;32.16;98871.47;5111557;28;20019;-78
2021/08/11 07:30:18;;;;;;;0.30;0.30;;;;;;;33.21;32.33;98864.09;5111304;28;20032;-78
2021/08/11 07:32:44;;;;;;;0.00;0.00;;;;;;;33.38;32.08;98859.34;5113899;28;20023;-78
2021/08/11 07:35:11;;;;;;;0.10;0.10;;;;;;;33.44;32.06;98859.59;5114029;28;20051;-78
2021/08/11 07:37:50;;;;;;;0.10;0.10;;;;;;;33.49;31.78;98859.06;5115110;28;20023;-78
2021/08/11 07:40:16;;;;;;;1.40;0.38;;;;;;;33.38;31.96;98861.34;5115204;27;20028;-78
2021/08/11 07:42:44;;;;;;;0.10;0.10;;;;;;;33.27;32.35;98856.81;5114932;28;20047;-78
2021/08/11 07:45:11;;;;;;;0.10;0.10;;;;;;;33.26;32.59;98860.78;5115377;28;20430;-78
2021/08/11 07:47:36;;;;;;;0.10;0.10;;;;;;;33.26;32.75;98863.56;5114902;28;20035;-78
2021/08/11 07:50:03;;;;;;;0.30;0.30;;;;;;;33.26;32.42;98860.78;5113718;28;20028;-79
2021/08/11 07:52:28;;;;;;;0.28;0.28;;;;;;;33.31;32.38;98856.75;5114804;27;20031;-78
2021/08/11 07:54:54;;;;;;;0.10;0.10;;;;;;;33.41;31.93;98860.44;5114809;28;20496;-78
2021/08/11 07:57:19;;;;;;;0.00;0.00;;;;;;;33.43;31.57;98861.56;5115093;28;20066;-78
2021/08/11 07:59:44;;;;;;;0.00;0.00;;;;;;;33.48;31.46;98857.50;5114940;28;20388;-78
2021/08/11 08:02:11;;;;;;;0.25;0.25;;;;;;;33.55;31.11;98862.84;5115181;28;20032;-79
2021/08/11 08:04:37;;;;;;;0.70;0.43;;;;;;;33.58;30.88;98861.19;5114606;28;20023;-78
2021/08/11 08:07:03;;;;;;;0.10;0.10;;;;;;;33.49;30.72;98850.75;5113324;28;20061;-78
2021/08/11 08:09:28;;;;;;;0.10;0.10;;;;;;;33.45;30.54;98853.59;5113140;28;20419;-78
2021/08/11 08:11:54;;;;;;;0.10;0.10;;;;;;;33.33;30.67;98854.34;5113275;28;20023;-78
2021/08/11 08:14:19;;;;;;;0.28;0.28;;;;;;;33.22;31.09;98857.34;5114308;28;20116;-78
2021/08/11 08:16:45;;;;;;;0.68;0.68;;;;;;;33.18;30.25;98851.13;5113283;28;20546;-78
2021/08/11 08:19:10;;;;;;;0.10;0.10;;;;;;;33.10;30.11;98852.53;5114241;28;20024;-78
2021/08/11 08:21:36;;;;;;;0.03;0.03;;;;;;;33.09;30.38;98846.19;5114196;28;20034;-78
2021/08/11 08:24:01;;;;;;;0.13;0.13;;;;;;;33.07;30.47;98837.56;5114332;28;20479;-78
2021/08/11 08:26:27;;;;;;;0.40;0.40;;;;;;;33.01;31.31;98845.59;5114331;28;20080;-78
2021/08/11 08:28:52;;;;;;;0.03;0.03;;;;;;;33.07;30.59;98836.75;5114014;28;20106;-78
2021/08/11 08:31:17;;;;;;;0.45;0.45;;;;;;;33.11;30.24;98829.16;5114258;28;20497;-78
2021/08/11 08:33:43;;;;;;;0.20;0.20;;;;;;;33.17;31.13;98827.41;5112714;28;20035;-78
2021/08/11 08:36:09;;;;;;;0.05;0.05;;;;;;;33.23;29.61;98824.88;5114177;28;20026;-78
2021/08/11 08:38:35;;;;;;;0.32;0.32;;;;;;;33.25;29.49;98826.00;5114052;28;20016;-78
2021/08/11 08:41:01;;;;;;;0.10;0.10;;;;;;;33.23;30.46;98822.88;5113766;28;20035;-78
2021/08/11 08:43:27;;;;;;;0.00;0.00;;;;;;;33.35;30.49;98815.88;5111757;28;20047;-78
2021/08/11 08:45:52;;;;;;;0.00;0.00;;;;;;;33.36;30.18;98814.66;5113480;28;20462;-78
2021/08/11 08:48:18;;;;;;;0.00;0.00;;;;;;;33.37;29.55;98824.53;5113632;28;20411;-77
2021/08/11 08:50:47;;;;;;;0.20;0.20;;;;;;;33.31;29.48;98810.44;5113626;28;20019;-78
2021/08/11 08:53:14;;;;;;;0.55;0.30;;;;;;;33.31;28.94;98809.63;5113570;28;20514;-78
2021/08/11 08:55:41;;;;;;;0.10;0.10;;;;;;;33.28;28.45;98802.19;5113624;28;20042;-78
2021/08/11 08:58:06;;;;;;;0.20;0.20;;;;;;;33.27;28.69;98808.94;5112434;28;20395;-78
2021/08/11 09:00:35;;;;;;;0.00;0.00;;;;;;;33.28;29.17;98802.94;5113761;28;20032;-78
2021/08/11 09:03:00;;;;;;;0.10;0.10;;;;;;;33.30;28.77;98799.78;5113576;28;20391;-78
2021/08/11 09:05:26;;;;;;;0.00;0.00;;;;;;;33.28;28.88;98796.66;5113900;28;20043;-79
2021/08/11 09:07:52;;;;;;;0.22;0.22;;;;;;;33.29;28.45;98790.66;5113555;28;20486;-78
2021/08/11 09:10:30;;;;;;;1.75;0.17;;;;;;;33.29;28.86;98798.97;5113340;28;20028;-76
2021/08/11 09:13:07;;;;;;;2.42;1.17;;;;;;;33.28;28.91;98796.66;5112287;28;20077;-78
2021/08/11 09:15:35;;;;;;;0.10;0.10;;;;;;;33.33;28.61;98790.59;5113438;28;20032;-78
2021/08/11 09:18:16;;;;;;;0.22;0.22;;;;;;;33.38;28.13;98786.50;5113664;28;20080;-78
2021/08/11 09:20:50;;;;;;;0.10;0.10;;;;;;;33.35;27.90;98771.53;5113194;28;20028;-76
2021/08/11 09:23:39;;;;;;;0.10;0.10;;;;;;;33.39;27.83;98777.75;5113005;28;20023;-79
2021/08/11 09:26:07;;;;;;;0.00;0.00;;;;;;;33.37;27.63;98774.63;5112992;28;20487;-76
2021/08/11 09:28:35;;;;;;;0.10;0.10;;;;;;;33.33;28.16;98771.19;5111596;28;20031;-76
2021/08/11 09:31:00;;;;;;;0.13;0.13;;;;;;;33.36;28.65;98771.09;5113072;28;20051;-77
2021/08/11 09:33:26;;;;;;;0.60;0.60;;;;;;;33.42;28.13;98776.09;5113423;28;20055;-77
2021/08/11 09:35:53;;;;;;;0.10;0.10;;;;;;;33.47;27.68;98770.00;5112788;28;20502;-76
2021/08/11 09:38:20;;;;;;;0.08;0.08;;;;;;;33.52;27.95;98769.47;5113629;28;20084;-76
2021/08/11 09:40:46;;;;;;;0.00;0.00;;;;;;;33.51;27.11;98767.94;5112448;28;20062;-77
2021/08/11 09:43:17;;;;;;;0.00;0.00;;;;;;;33.50;26.79;98761.59;5113026;28;20075;-77
2021/08/11 09:45:51;;;;;;;4.35;1.30;;;;;;;33.50;26.88;98761.59;5112361;28;20452;-77
2021/08/11 09:48:19;;;;;;;0.13;0.10;;;;;;;33.53;26.15;98757.16;5112705;28;20379;-76
2021/08/11 09:50:46;;;;;;;0.10;0.10;;;;;;;33.56;26.92;98752.72;5112532;28;20453;-77
2021/08/11 09:53:14;;;;;;;0.10;0.10;;;;;;;33.56;26.74;98744.41;5112992;28;20070;-77
2021/08/11 09:56:06;;;;;;;0.20;0.20;;;;;;;33.67;27.36;98744.88;5112259;28;20039;-76
2021/08/11 09:58:39;;;;;;;0.20;0.20;;;;;;;33.72;26.71;98738.78;5112481;28;20020;-77
2021/08/11 10:01:06;;;;;;;0.00;0.00;;;;;;;33.75;27.17;98734.34;5112552;27;20527;-77
2021/08/11 10:03:33;;;;;;;0.00;0.00;;;;;;;33.73;26.70;98736.78;5112435;28;20023;-77
2021/08/11 10:05:59;;;;;;;0.00;0.00;;;;;;;33.74;27.20;98732.78;5112501;28;20024;-77
2021/08/11 10:08:34;;;;;;;0.90;0.63;;;;;;;33.80;26.97;98729.03;5112158;28;20024;-77
2021/08/11 10:11:00;;;;;;;0.03;0.03;;;;;;;33.88;27.12;98729.63;5112268;28;20173;-77
2021/08/11 10:13:27;;;;;;;0.00;0.00;;;;;;;33.94;26.86;98725.06;5112345;28;20019;-76
2021/08/11 10:15:53;;;;;;;0.00;0.00;;;;;;;33.99;26.20;98730.06;5112164;28;20352;-76
2021/08/11 10:18:27;;;;;;;0.17;0.17;;;;;;;33.97;26.34;98724.19;5112211;28;20106;-78
2021/08/11 10:20:56;;;;;;;0.35;0.35;;;;;;;33.99;26.93;98727.28;5112088;28;20398;-77
2021/08/11 10:23:21;;;;;;;0.40;0.40;;;;;;;34.00;26.90;98725.31;5110517;28;20027;-77
2021/08/11 10:25:48;;;;;;;0.20;0.20;;;;;;;34.13;27.27;98720.53;5110139;28;20032;-76
2021/08/11 10:28:18;;;;;;;0.00;0.00;;;;;;;34.21;26.73;98714.75;5111996;28;20031;-77
2021/08/11 10:30:44;;;;;;;0.28;0.28;;;;;;;34.32;27.22;98713.16;5111753;28;20028;-77
2021/08/11 10:33:11;;;;;;;0.10;0.10;;;;;;;34.43;27.15;98698.19;5110684;28;20156;-77
2021/08/11 10:35:39;;;;;;;0.10;0.10;;;;;;;34.55;26.47;98716.81;5111708;28;20032;-78
2021/08/11 10:38:08;;;;;;;0.40;0.40;;;;;;;34.56;26.44;98701.72;5111978;28;20046;-78
2021/08/11 10:40:34;;;;;;;0.10;0.10;;;;;;;34.56;25.59;98698.94;5110295;28;20051;-76
2021/08/11 10:42:59;;;;;;;0.00;0.00;;;;;;;34.50;25.55;98695.19;5111824;28;20136;-76
2021/08/11 10:45:26;;;;;;;0.10;0.10;;;;;;;34.44;25.90;98689.41;5111782;28;20063;-77
2021/08/11 10:47:52;;;;;;;0.10;0.10;;;;;;;34.51;26.42;98691.19;5110136;28;20034;-79
2021/08/11 10:50:18;;;;;;;0.03;0.03;;;;;;;34.56;26.09;98684.25;5111723;28;20032;-78
2021/08/11 10:52:44;;;;;;;0.00;0.00;;;;;;;34.65;25.74;98681.59;5111445;28;20024;-78
2021/08/11 10:55:10;;;;;;;0.00;0.00;;;;;;;34.73;25.07;98680.13;5111420;28;20062;-77
2021/08/11 10:57:40;;;;;;;0.10;0.10;;;;;;;34.79;24.50;98678.31;5111653;28;20106;-78
2021/08/11 11:00:11;;;;;;;0.10;0.10;;;;;;;34.77;24.31;98664.09;5111896;28;20023;-76
2021/08/11 11:02:40;;;;;;;0.00;0.00;;;;;;;34.83;24.52;98666.28;5111376;28;20019;-77
2021/08/11 11:05:07;;;;;;;0.10;0.10;;;;;;;34.81;24.29;98657.66;5111545;28;20024;-77
2021/08/11 11:07:33;;;;;;;0.52;0.52;;;;;;;34.82;24.62;98657.19;5110660;28;20027;-77
2021/08/11 11:10:25;;;;;;;0.20;0.20;;;;;;;34.82;25.01;98661.97;5111165;28;20038;-76
2021/08/11 11:12:51;;;;;;;0.20;0.20;;;;;;;34.76;25.17;98659.75;5100834;28;20046;-77
2021/08/11 11:15:36;;;;;;;2.15;0.32;;;;;;;34.72;24.38;98652.81;5111502;28;20406;-76
2021/08/11 11:18:20;;;;;;;2.08;1.10;;;;;;;34.67;23.23;98658.91;5109926;28;20393;-79
2021/08/11 11:20:47;;;;;;;0.00;0.00;;;;;;;34.60;23.48;98648.84;5111167;28;20027;-79
2021/08/11 11:23:32;;;;;;;0.43;0.43;;;;;;;34.54;23.66;98634.75;5111277;28;20055;-78
2021/08/11 11:26:05;;;;;;;0.20;0.20;;;;;;;34.46;24.20;98641.75;5111195;28;20027;-77
2021/08/11 11:28:57;;;;;;;0.10;0.10;;;;;;;34.39;24.49;98642.81;5111080;28;20027;-78
2021/08/11 11:31:51;;;;;;;0.75;0.75;;;;;;;34.39;24.49;98640.03;5111319;28;20019;-78
2021/08/11 11:34:35;;;;;;;1.17;1.10;;;;;;;34.35;24.61;98624.69;5103667;28;20040;-77
2021/08/11 11:37:01;;;;;;;0.10;0.10;;;;;;;34.37;24.26;98628.59;5109468;28;20036;-78